Latest Weather Observations for Cooktown

IDQ60801

Issued at 6:42 pm EST Sunday 15 December 2019 (issued every 10 minutes, with the page automatically refreshed every 10 minutes)

About weather observations | Map of weather stations | Latest weather observations for QLD | Other Formats
Station Details ID: 031209 Name: COOKTOWN AIRPORT Lat: -15.45 Lon: 145.19 Height: 4.8 m
Data from the previous 72 hours. | See also: Recent months at Cooktown
Date/Time
EST
Temp
°C
App
Temp
°C
Dew
Point
°C
Rel
Hum
%
Delta-T
°C
Wind Press
QNH
hPa
Press
MSL
hPa
Rain since
9am
mm
Dir  Spd
km/h
Gust
km/h
Spd
kts
Gust
kts
15/06:30pm 28.3 30.5 21.8 68 4.4 NE 13 19 7 10 1007.8 1007.7 0.0
15/06:00pm 28.8 31.0 21.8 66 4.7 NE 13 24 7 13 1006.9 1006.8 0.0
15/05:30pm 29.1 31.1 22.3 66 4.6 ENE 15 20 8 11 1006.5 1006.4 0.0
15/05:00pm 30.1 31.0 21.5 60 5.8 E 19 24 10 13 1006.5 1006.4 0.0
15/04:30pm 31.2 31.4 20.5 53 7.1 E 20 28 11 15 1006.4 1006.3 0.0
15/04:00pm 31.6 31.1 21.5 55 6.8 E 26 32 14 17 1006.4 1006.3 0.0
15/03:30pm 31.1 30.4 21.0 55 6.8 ENE 26 33 14 18 1006.8 1006.7 0.0
15/03:00pm 32.0 31.9 21.5 53 7.1 E 24 32 13 17 1006.9 1006.8 0.0
15/02:30pm 31.9 31.1 20.8 51 7.4 E 26 32 14 17 1007.0 1006.9 0.0
15/02:00pm 32.3 32.6 21.5 53 7.3 E 22 28 12 15 1007.3 1007.2 0.0
15/01:30pm 32.6 33.1 21.1 50 7.7 ENE 20 28 11 15 1007.6 1007.5 0.0
15/01:00pm 31.7 32.2 21.2 53 7.1 E 20 28 11 15 1008.1 1008.0 0.0
15/12:30pm 31.7 31.8 21.2 53 7.1 E 22 30 12 16 1008.6 1008.5 0.0
15/12:00pm 31.9 32.4 22.0 55 6.7 E 22 32 12 17 1008.8 1008.7 0.0
15/11:30am 32.4 33.6 22.2 55 7.0 E 19 26 10 14 1009.0 1008.9 0.0
15/11:00am 31.7 32.9 22.1 56 6.5 ESE 19 28 10 15 1009.5 1009.4 0.0
15/10:30am 31.3 32.3 21.8 57 6.4 E 19 24 10 13 1009.9 1009.8 0.0
15/10:00am 31.1 32.4 22.4 60 5.9 E 19 24 10 13 1010.2 1010.1 0.0
15/09:30am 30.5 32.5 22.9 64 5.2 ESE 17 24 9 13 1010.3 1010.2 0.0
15/09:00am 30.3 32.3 22.2 62 5.5 E 15 22 8 12 1009.8 1009.7 0.0
15/08:30am 30.1 33.6 22.8 65 5.0 ENE 9 13 5 7 1009.6 1009.5 0.0
15/08:00am 29.1 33.0 22.6 68 4.4 E 6 13 3 7 1009.6 1009.5 0.0
15/07:30am 27.4 32.8 23.2 78 2.9 CALM 0 0 0 0 1009.2 1009.1 0.0
15/07:00am 26.5 30.7 23.4 83 2.1 E 7 11 4 6 1009.1 1009.0 0.0
15/06:30am 26.0 30.2 23.5 86 1.7 NNE 7 11 4 6 1008.4 1008.3 0.0
15/06:00am 25.2 29.2 23.1 88 1.4 NNE 7 11 4 6 1008.6 1008.5 0.0
15/05:30am 25.5 29.3 23.4 88 1.4 NNW 9 11 5 6 1008.8 1008.7 0.0
15/05:00am 25.6 29.7 23.3 87 1.6 NW 7 9 4 5 1008.8 1008.7 0.0
15/04:30am 25.7 29.5 23.4 87 1.6 NW 9 11 5 6 1008.7 1008.6 0.0
15/04:05am 25.9 30.3 23.4 86 1.7 WSW 6 9 3 5 1008.8 1008.7 0.0
15/04:00am 25.9 30.3 23.4 86 1.7 WSW 6 9 3 5 1008.8 1008.7 0.0
15/03:49am 25.9 30.1 23.4 86 1.7 SW 7 9 4 5 1008.7 1008.6 0.0
15/03:30am 25.9 30.3 23.4 86 1.7 WNW 6 9 3 5 1007.9 1007.8 0.0
15/03:00am 25.8 29.2 23.3 86 1.7 NNW 11 15 6 8 1007.2 1007.1 0.0
15/02:30am 25.8 29.2 23.3 86 1.7 NW 11 13 6 7 1007.8 1007.7 0.0
15/02:00am 26.1 30.6 23.6 86 1.7 NNW 6 7 3 4 1008.3 1008.2 0.0
15/01:30am 26.4 30.6 23.5 84 2.0 WSW 7 11 4 6 1008.4 1008.3 0.0
15/01:00am 26.9 31.3 23.4 81 2.4 NE 6 7 3 4 1008.5 1008.4 0.0
15/12:30am 27.2 31.0 23.4 80 2.6 ENE 9 13 5 7 1008.8 1008.7 0.0
15/12:00am 27.3 30.8 23.5 80 2.6 E 11 15 6 8 1009.8 1009.7 0.0
 
Date/Time
EST
Temp
°C
App
Temp
°C
Dew
Point
°C
Rel
Hum
%
Delta-T
°C
Wind Press
QNH
hPa
Press
MSL
hPa
Rain since
9am
mm
Dir  Spd
km/h
Gust
km/h
Spd
kts
Gust
kts
14/11:30pm 27.3 31.3 23.7 81 2.5 SE 9 13 5 7 1010.6 1010.5 0.0
14/11:00pm 27.5 30.7 23.7 80 2.6 ESE 13 17 7 9 1010.9 1010.8 0.0
14/10:30pm 26.9 30.5 23.8 83 2.1 ESE 11 13 6 7 1010.7 1010.6 0.0
14/10:00pm 26.0 30.5 23.7 87 1.6 ESE 6 11 3 6 1010.3 1010.2 0.0
14/09:30pm 25.6 30.9 23.1 86 1.7 CALM 0 0 0 0 1009.4 1009.3 0.0
14/09:00pm 25.4 29.7 22.7 85 1.8 E 4 6 2 3 1008.8 1008.7 0.0
14/08:30pm 25.9 30.8 23.0 84 2.0 E 2 6 1 3 1008.6 1008.5 0.0
14/08:00pm 26.1 29.9 22.8 82 2.2 ENE 7 7 4 4 1008.4 1008.3 0.0
14/07:30pm 26.8 30.6 22.8 79 2.7 ENE 7 9 4 5 1008.2 1008.1 0.0
14/07:00pm 27.2 30.8 22.4 75 3.2 E 7 11 4 6 1007.7 1007.6 0.0
14/06:30pm 28.2 31.2 22.7 72 3.7 ENE 11 13 6 7 1007.6 1007.5 0.0
14/06:00pm 28.3 30.7 23.0 73 3.6 E 15 22 8 12 1007.4 1007.3 0.0
14/05:30pm 28.6 29.9 23.3 73 3.6 E 22 30 12 16 1006.8 1006.7 0.0
14/05:00pm 29.5 29.4 22.2 65 5.0 E 26 32 14 17 1006.4 1006.3 0.0
14/04:30pm 31.3 30.9 20.9 54 6.9 E 24 30 13 16 1006.3 1006.2 0.0
14/04:00pm 31.8 31.7 22.2 56 6.5 E 26 35 14 19 1006.0 1005.9 0.0
14/03:30pm 32.2 31.6 22.6 57 6.6 E 30 41 16 22 1006.3 1006.2 0.0
14/03:00pm 31.5 29.8 21.7 56 6.6 E 33 41 18 22 1006.4 1006.3 0.0
14/02:30pm 32.7 31.7 21.2 50 7.7 E 28 35 15 19 1006.4 1006.3 0.0
14/02:00pm 33.0 32.8 21.2 50 8.0 E 24 32 13 17 1006.6 1006.5 0.0
14/01:30pm 33.4 33.2 21.2 48 8.2 E 24 32 13 17 1007.1 1007.0 0.0
14/01:00pm 33.3 32.6 21.1 48 8.2 E 26 32 14 17 1007.6 1007.5 0.0
14/12:30pm 33.8 33.9 21.9 49 8.1 E 24 33 13 18 1008.3 1008.2 0.0
14/12:00pm 34.1 34.6 21.2 47 8.7 E 20 28 11 15 1008.6 1008.5 0.0
14/11:30am 34.5 36.0 21.2 46 9.0 ENE 15 24 8 13 1009.1 1009.0 0.0
14/11:00am 33.8 36.5 20.6 46 8.9 NW 7 13 4 7 1009.8 1009.7 0.0
14/10:30am 32.5 34.3 20.4 49 8.1 NW 11 19 6 10 1010.4 1010.3 0.0
14/10:00am 31.3 33.3 19.9 50 7.5 NW 9 15 5 8 1010.8 1010.7 0.0
14/09:30am 30.4 32.8 20.0 53 6.8 NNW 7 11 4 6 1011.3 1011.2 0.0
14/09:00am 29.4 32.7 20.8 60 5.7 WSW 4 9 2 5 1011.3 1011.2 0.0
14/08:30am 28.2 31.4 21.2 65 4.7 WSW 6 9 3 5 1011.5 1011.4 0.0
14/08:00am 27.3 31.2 22.5 75 3.2 WNW 6 11 3 6 1011.6 1011.5 0.0
14/07:30am 25.8 30.9 22.7 83 2.1 CALM 0 0 0 0 1011.5 1011.4 0.0
14/07:00am 24.9 29.8 23.0 89 1.3 S 2 6 1 3 1011.7 1011.6 0.0
14/06:30am 24.0 27.9 22.6 92 0.9 SW 6 11 3 6 1011.8 1011.7 0.0
14/06:00am 23.3 28.1 22.1 93 0.8 CALM 0 0 0 0 1011.1 1011.0 0.0
14/05:30am 23.8 28.7 22.4 92 0.9 CALM 0 0 0 0 1010.6 1010.5 0.0
14/05:00am 24.1 29.3 22.9 93 0.8 CALM 0 0 0 0 1010.3 1010.2 0.0
14/04:48am 23.9 29.0 22.7 93 0.8 CALM 0 0 0 0 1010.2 1010.1 0.0
14/04:30am 23.8 28.9 22.6 93 0.8 CALM 0 0 0 0 1010.1 1010.0 0.0
14/04:02am 23.7 27.4 22.5 93 0.8 NNW 7 9 4 5 1010.1 1010.0 0.0
14/04:00am 23.7 27.4 22.5 93 0.8 NNW 7 9 4 5 1010.1 1010.0 0.0
14/03:48am 23.7 27.0 22.5 93 0.8 NW 9 11 5 6 1010.1 1010.0 0.0
14/03:31am 23.6 27.3 22.6 94 0.7 WNW 7 9 4 5 1009.9 1009.8 0.0
14/03:30am 23.6 27.3 22.6 94 0.7 WNW 7 9 4 5 1009.9 1009.8 0.0
14/03:10am 23.3 26.9 22.3 94 0.7 WNW 7 11 4 6 1009.9 1009.8 0.0
14/03:00am 23.3 26.8 22.1 93 0.8 W 7 11 4 6 1009.9 1009.8 0.0
14/02:55am 23.3 26.9 22.3 94 0.7 W 7 11 4 6 1009.8 1009.7 0.0
14/02:30am 23.4 27.6 22.4 94 0.7 W 4 7 2 4 1009.2 1009.1 0.0
14/02:00am 23.2 27.9 22.0 93 0.8 CALM 0 0 0 0 1009.2 1009.1 0.0
14/01:30am 23.7 27.4 22.3 92 0.9 NW 6 7 3 4 1009.6 1009.5 0.0
14/01:19am 24.0 27.9 22.6 92 0.9 NW 6 7 3 4 1009.7 1009.6 0.0
14/01:04am 24.1 27.9 22.7 92 0.9 NW 7 7 4 4 1010.0 1009.9 0.0
14/01:00am 24.1 27.9 22.7 92 0.9 NW 7 7 4 4 1010.1 1010.0 0.0
14/12:58am 24.1 28.1 22.7 92 0.9 WNW 6 7 3 4 1010.1 1010.0 0.0
14/12:31am 24.2 28.2 22.8 92 0.9 W 6 7 3 4 1010.4 1010.3 0.0
14/12:30am 24.2 28.2 22.8 92 0.9 WNW 6 7 3 4 1010.4 1010.3 0.0
14/12:00am 24.5 29.8 23.1 92 0.9 CALM 0 0 0 0 1010.2 1010.1 0.0
 
Date/Time
EST
Temp
°C
App
Temp
°C
Dew
Point
°C
Rel
Hum
%
Delta-T
°C
Wind Press
QNH
hPa
Press
MSL
hPa
Rain since
9am
mm
Dir  Spd
km/h
Gust
km/h
Spd
kts
Gust
kts
13/11:37pm 24.6 29.8 22.8 90 1.2 CALM 0 0 0 0 1010.3 1010.2 0.0
13/11:30pm 24.7 29.9 22.9 90 1.2 CALM 0 0 0 0 1010.4 1010.3 0.0
13/11:05pm 25.1 30.5 23.2 89 1.3 CALM 0 0 0 0 1010.5 1010.4 0.0
13/11:00pm 25.1 30.5 23.2 89 1.3 CALM 0 0 0 0 1010.5 1010.4 0.0
13/10:38pm 25.1 30.3 22.8 87 1.6 CALM 0 0 0 0 1010.4 1010.3 0.0
13/10:30pm 25.2 30.5 23.1 88 1.4 CALM 0 0 0 0 1010.5 1010.4 0.0
13/10:11pm 25.4 30.7 23.1 87 1.6 CALM 0 0 0 0 1010.8 1010.7 0.0
13/10:00pm 25.4 30.7 23.1 87 1.6 CALM 0 0 0 0 1010.9 1010.8 0.0
13/09:30pm 25.3 30.6 23.0 87 1.6 CALM 0 2 0 1 1010.7 1010.6 0.0
13/09:05pm 26.0 31.4 23.3 85 1.8 CALM 0 0 0 0 1010.3 1010.2 0.0
13/09:00pm 25.9 31.4 23.4 86 1.7 CALM 0 0 0 0 1010.1 1010.0 0.0
13/08:33pm 26.1 30.3 23.4 85 1.8 N 7 9 4 5 1009.8 1009.7 0.0
13/08:30pm 26.0 30.1 23.3 85 1.8 N 7 9 4 5 1009.8 1009.7 0.0
13/08:00pm 26.6 30.7 23.3 82 2.3 ENE 7 11 4 6 1009.7 1009.6 0.0
13/07:30pm 27.0 29.7 23.5 81 2.4 E 15 19 8 10 1009.5 1009.4 0.0
13/07:00pm 27.2 30.1 23.2 79 2.7 ENE 13 19 7 10 1009.3 1009.2 0.0
13/06:30pm 27.7 29.7 22.9 75 3.3 E 17 22 9 12 1008.6 1008.5 0.0
13/06:00pm 28.6 30.2 22.8 71 4.0 E 19 26 10 14 1008.5 1008.4 0.0
13/05:30pm 29.3 30.0 22.3 66 4.7 E 22 30 12 16 1008.4 1008.3 0.0
13/05:00pm 29.9 29.4 22.1 63 5.3 E 28 33 15 18 1008.2 1008.1 0.0
13/04:30pm 30.7 31.0 21.5 58 6.2 E 22 32 12 17 1008.2 1008.1 0.0
13/04:00pm 31.1 31.1 21.6 57 6.4 E 24 32 13 17 1007.9 1007.8 0.0
13/03:30pm 31.8 30.8 20.4 51 7.6 E 26 32 14 17 1007.8 1007.7 0.0
13/03:00pm 31.8 30.9 20.7 51 7.4 E 26 35 14 19 1008.0 1007.9 0.0
13/02:30pm 32.1 31.0 21.0 52 7.4 E 28 33 15 18 1008.2 1008.1 0.0
13/02:00pm 31.9 30.8 21.1 52 7.3 E 28 35 15 19 1008.7 1008.6 0.0
13/01:30pm 32.5 32.5 21.0 50 7.7 ESE 22 32 12 17 1009.0 1008.9 0.0
13/01:00pm 32.2 31.0 20.8 51 7.6 E 28 35 15 19 1009.6 1009.5 0.0
13/12:30pm 32.4 31.6 21.6 53 7.3 E 28 35 15 19 1009.9 1009.8 0.0
13/12:00pm 32.3 31.3 20.5 49 7.9 E 26 35 14 19 1010.1 1010.0 0.0
13/11:30am 32.2 32.1 20.8 51 7.6 E 22 32 12 17 1010.4 1010.3 0.0
13/11:00am 32.4 33.3 21.9 54 7.1 E 20 28 11 15 1010.5 1010.4 0.0
13/10:30am 31.7 32.0 20.3 50 7.6 E 19 26 10 14 1010.8 1010.7 0.0
13/10:00am 31.8 32.9 21.3 53 7.1 SE 17 22 9 12 1010.8 1010.7 0.0
13/09:30am 31.0 32.4 21.8 58 6.2 ESE 17 26 9 14 1011.1 1011.0 0.0
13/09:00am 30.3 33.8 22.2 62 5.5 SSE 7 11 4 6 1011.2 1011.1 0.2
13/08:30am 29.4 32.0 21.9 64 5.1 SE 11 17 6 9 1011.2 1011.1 0.2
13/08:00am 28.7 32.1 22.7 70 4.1 S 9 17 5 9 1011.2 1011.1 0.2
13/07:30am 27.7 31.8 22.9 75 3.3 WSW 6 7 3 4 1010.9 1010.8 0.2
13/07:00am 26.3 31.6 23.0 82 2.2 CALM 0 0 0 0 1010.7 1010.6 0.2
13/06:30am 24.9 30.2 23.1 90 1.2 CALM 0 0 0 0 1010.6 1010.5 0.2
13/06:00am 24.8 29.9 22.7 88 1.4 CALM 0 0 0 0 1010.2 1010.1 0.2
13/05:30am 25.4 29.5 22.9 86 1.7 SSW 6 7 3 4 1009.8 1009.7 0.2
13/05:00am 25.9 30.1 23.4 86 1.7 SSE 7 9 4 5 1009.4 1009.3 0.2
13/04:30am 26.0 30.1 23.3 85 1.8 SSE 7 11 4 6 1009.1 1009.0 0.2
13/04:00am 26.2 30.0 23.5 85 1.8 SE 9 11 5 6 1008.9 1008.8 0.2
13/03:30am 26.1 29.8 23.2 84 2.0 SE 9 15 5 8 1008.9 1008.8 0.2
13/03:00am 26.3 30.0 23.2 83 2.1 SE 9 13 5 7 1009.0 1008.9 0.2
13/02:30am 26.6 30.1 23.5 83 2.1 SE 11 15 6 8 1008.8 1008.7 0.2
13/02:00am 26.5 30.4 23.6 84 2.0 SE 9 17 5 9 1008.8 1008.7 0.2
13/01:30am 26.7 30.6 23.6 83 2.1 SE 9 15 5 8 1009.1 1009.0 0.2
13/01:00am 26.8 30.4 23.7 83 2.1 SE 11 17 6 9 1009.5 1009.4 0.2
13/12:30am 27.0 30.2 23.7 82 2.3 ESE 13 19 7 10 1009.6 1009.5 0.2
13/12:00am 27.0 31.0 23.7 82 2.3 SE 9 15 5 8 1010.0 1009.9 0.2
 
Date/Time
EST
Temp
°C
App
Temp
°C
Dew
Point
°C
Rel
Hum
%
Delta-T
°C
Wind Press
QNH
hPa
Press
MSL
hPa
Rain since
9am
mm
Dir  Spd
km/h
Gust
km/h
Spd
kts
Gust
kts
12/11:30pm 27.2 30.0 23.7 81 2.4 ESE 15 20 8 11 1010.4 1010.3 0.2
12/11:02pm 27.2 30.4 23.7 81 2.4 SE 13 20 7 11 1011.0 1010.9 0.2
12/11:00pm 27.2 30.4 23.7 81 2.4 SE 13 20 7 11 1010.9 1010.8 0.2
12/10:44pm 27.2 30.8 23.7 81 2.4 SE 11 17 6 9 1011.0 1010.9 0.2
12/10:37pm 27.3 31.3 23.7 81 2.5 SE 9 17 5 9 1011.1 1011.0 0.2
12/10:30pm 27.3 31.1 23.5 80 2.6 SE 9 15 5 8 1010.9 1010.8 0.2
12/10:26pm 27.3 30.8 23.5 80 2.6 SE 11 17 6 9 1011.0 1010.9 0.2
12/10:00pm 27.2 30.8 23.7 81 2.4 ESE 11 15 6 8 1010.5 1010.4 0.2
12/09:30pm 26.9 30.5 23.8 83 2.1 SE 11 19 6 10 1010.3 1010.2 0.2
12/09:00pm 26.9 30.5 23.8 83 2.1 ESE 11 17 6 9 1009.7 1009.6 0.2
12/08:30pm 27.1 30.7 23.8 82 2.3 SE 11 20 6 11 1009.6 1009.5 0.2
12/08:00pm 27.2 30.4 23.7 81 2.4 SE 13 19 7 10 1009.4 1009.3 0.2
12/07:30pm 27.2 30.2 23.4 80 2.6 SE 13 20 7 11 1009.3 1009.2 0.2
12/07:00pm 27.5 31.0 23.5 79 2.7 SE 11 17 6 9 1009.4 1009.3 0.2

Other formats

Comma delimited format used in spreadsheet applications
http://www.bom.gov.au/fwo/IDQ60801/IDQ60801.95283.axf

JavaScript Object Notation format (JSON) in row-major order
http://www.bom.gov.au/fwo/IDQ60801/IDQ60801.95283.json

Data quality

Most of these data are generated automatically and are frequently updated. Quality checks on data are not normally performed. It is possible for incorrect values to appear. Refer to information at About Latest Weather Observations and please check the disclaimer before using these data.